createdAt,value
2018-09-20T00:01:09.047Z,1003.07
2018-09-20T00:02:19.136Z,1003.09
2018-09-20T00:03:28.976Z,1003.06
2018-09-20T00:04:38.782Z,1003.08
2018-09-20T00:05:48.865Z,1003.1
2018-09-20T00:06:58.924Z,1003.06
2018-09-20T00:08:09.043Z,1003.06
2018-09-20T00:09:18.854Z,1003.07
2018-09-20T00:10:28.944Z,1003.06
2018-09-20T00:11:39.017Z,1003.06
2018-09-20T00:12:49.105Z,1003.05
2018-09-20T00:13:59.173Z,1003.06
2018-09-20T00:15:09.246Z,1003.04
2018-09-20T00:16:19.309Z,1003.07
2018-09-20T00:17:29.382Z,1003.04
2018-09-20T00:18:39.473Z,1003.05
2018-09-20T00:19:49.551Z,1003.07
2018-09-20T00:20:59.363Z,1003.03
2018-09-20T00:22:09.454Z,1003.07
2018-09-20T00:23:19.529Z,1003.03
2018-09-20T00:24:29.602Z,1003.09
2018-09-20T00:25:39.731Z,1003.04
2018-09-20T00:26:49.845Z,1003.04
2018-09-20T00:27:59.659Z,1002.97
2018-09-20T00:29:09.741Z,1002.99
2018-09-20T00:30:19.811Z,1003
2018-09-20T00:31:29.938Z,1003
2018-09-20T00:32:39.733Z,1003
2018-09-20T00:33:49.553Z,1002.98
2018-09-20T00:34:59.642Z,1003.02
2018-09-20T00:36:09.710Z,1003.01
2018-09-20T00:37:19.829Z,1003
2018-09-20T00:38:29.907Z,1003.03
2018-09-20T00:39:39.981Z,1003.03
2018-09-20T00:40:50.066Z,1003.03
2018-09-20T00:41:59.877Z,1003.04
2018-09-20T00:43:10.160Z,1003.05
2018-09-20T00:44:20.238Z,1003.07
2018-09-20T00:45:30.313Z,1003.08
2018-09-20T00:46:40.133Z,1003.05
2018-09-20T00:47:50.203Z,1003.08
2018-09-20T00:49:01.984Z,1003.06
2018-09-20T00:50:12.056Z,1003.09
2018-09-20T00:51:22.134Z,1003.09
2018-09-20T00:52:32.217Z,1003.11
2018-09-20T00:53:42.290Z,1003.07
2018-09-20T00:54:52.413Z,1003.1
2018-09-20T00:56:02.503Z,1003.08
2018-09-20T00:57:12.674Z,1003.08
2018-09-20T00:58:22.761Z,1003.04
2018-09-20T00:59:32.591Z,1003.07
2018-09-20T01:00:42.684Z,1003.06
2018-09-20T01:01:52.799Z,1003.06
2018-09-20T01:03:02.869Z,1003.02
2018-09-20T01:04:12.926Z,1003.04
2018-09-20T01:05:22.763Z,1003.02
2018-09-20T01:06:32.317Z,1003.01
2018-09-20T01:07:42.119Z,1003.05
2018-09-20T01:08:52.184Z,1003.01
2018-09-20T01:10:01.999Z,1002.99
2018-09-20T01:11:12.059Z,1003
2018-09-20T01:12:21.654Z,1003
2018-09-20T01:13:31.202Z,1002.98
2018-09-20T01:14:41.277Z,1002.98
2018-09-20T01:15:51.090Z,1002.95
2018-09-20T01:17:01.149Z,1002.92
2018-09-20T01:18:11.278Z,1002.96
2018-09-20T01:19:21.357Z,1002.93
2018-09-20T01:20:31.416Z,1002.93
2018-09-20T01:21:41.500Z,1002.93
2018-09-20T01:22:51.563Z,1002.96
2018-09-20T01:24:01.681Z,1002.93
2018-09-20T01:25:11.503Z,1002.96
2018-09-20T01:26:21.850Z,1002.93
2018-09-20T01:27:31.956Z,1002.94
2018-09-20T01:28:41.780Z,1002.95
2018-09-20T01:29:51.875Z,1002.94
2018-09-20T01:31:03.671Z,1002.96
2018-09-20T01:32:13.739Z,1002.99
2018-09-20T01:33:23.290Z,1002.98
2018-09-20T01:34:33.375Z,1002.95
2018-09-20T01:35:43.249Z,1002.98
2018-09-20T01:36:52.792Z,1002.99
2018-09-20T01:38:02.888Z,1003
2018-09-20T01:39:12.689Z,1003.02
2018-09-20T01:40:22.498Z,1003.03
2018-09-20T01:41:32.632Z,1003
2018-09-20T01:42:42.443Z,1003.02
2018-09-20T01:43:52.532Z,1003.02
2018-09-20T01:45:02.616Z,1003.04
2018-09-20T01:46:12.188Z,1003.04
2018-09-20T01:47:22.301Z,1003.04
2018-09-20T01:48:32.367Z,1003.09
2018-09-20T01:49:42.446Z,1003.05
2018-09-20T01:50:52.532Z,1003.05
2018-09-20T01:52:02.341Z,1003.1
2018-09-20T01:53:12.476Z,1003.11
2018-09-20T01:54:22.558Z,1003.1
2018-09-20T01:55:32.631Z,1003.1
2018-09-20T01:56:42.724Z,1003.11
2018-09-20T01:57:52.796Z,1003.1
2018-09-20T01:59:02.972Z,1003.1
2018-09-20T02:00:13.155Z,1003.11
2018-09-20T02:01:23.233Z,1003.07
2018-09-20T02:02:33.296Z,1003.11
2018-09-20T02:03:43.374Z,1003.09
2018-09-20T02:04:53.238Z,1003.1
2018-09-20T02:06:03.307Z,1003.09
2018-09-20T02:07:13.373Z,1003.09
2018-09-20T02:08:23.451Z,1003.14
2018-09-20T02:09:33.555Z,1003.13
2018-09-20T02:10:43.679Z,1003.12
2018-09-20T02:11:53.760Z,1003.13
2018-09-20T02:13:05.500Z,1003.15
2018-09-20T02:14:15.573Z,1003.11
2018-09-20T02:15:25.893Z,1003.07
2018-09-20T02:16:35.705Z,1003.09
2018-09-20T02:17:45.780Z,1003.03
2018-09-20T02:18:55.598Z,1003.09
2018-09-20T02:20:05.405Z,1003.11
2018-09-20T02:21:15.469Z,1003.14
2018-09-20T02:22:25.532Z,1003.13
2018-09-20T02:23:35.354Z,1003.13
2018-09-20T02:24:44.919Z,1003.2
2018-09-20T02:25:54.997Z,1003.14
2018-09-20T02:27:05.098Z,1003.2
2018-09-20T02:28:15.215Z,1003.19
2018-09-20T02:29:25.294Z,1003.22
2018-09-20T02:30:35.371Z,1003.19
2018-09-20T02:31:45.468Z,1003.22
2018-09-20T02:32:55.553Z,1003.21
2018-09-20T02:34:05.624Z,1003.22
2018-09-20T02:35:15.704Z,1003.21
2018-09-20T02:36:25.276Z,1003.22
2018-09-20T02:37:35.351Z,1003.21
2018-09-20T02:38:45.171Z,1003.18
2018-09-20T02:39:55.244Z,1003.21
2018-09-20T02:41:05.530Z,1003.2
2018-09-20T02:42:15.342Z,1003.19
2018-09-20T02:43:25.160Z,1003.17
2018-09-20T02:44:35.236Z,1003.18
2018-09-20T02:45:45.045Z,1003.18
2018-09-20T02:46:55.129Z,1003.19
2018-09-20T02:48:05.846Z,1003.2
2018-09-20T02:49:15.449Z,1003.18
2018-09-20T02:50:25.526Z,1003.2
2018-09-20T02:51:35.361Z,1003.17
2018-09-20T02:52:45.457Z,1003.19
2018-09-20T02:53:54.997Z,1003.16
2018-09-20T02:55:05.090Z,1003.18
2018-09-20T02:56:14.898Z,1003.15
2018-09-20T02:57:24.720Z,1003.15
2018-09-20T02:58:34.801Z,1003.18
2018-09-20T02:59:44.601Z,1003.16
2018-09-20T03:00:55.753Z,1003.21
2018-09-20T03:02:06.585Z,1003.18
2018-09-20T03:35:12.761Z,1003.24
2018-09-20T03:36:22.854Z,1003.25
2018-09-20T03:37:32.717Z,1003.29
2018-09-20T03:38:42.525Z,1003.26
2018-09-20T03:39:52.589Z,1003.27
2018-09-20T03:41:04.035Z,1003.29
2018-09-20T03:42:13.837Z,1003.28
2018-09-20T03:43:23.638Z,1003.32
2018-09-20T03:44:33.722Z,1003.3
2018-09-20T03:45:43.800Z,1003.29
2018-09-20T03:46:53.744Z,1003.27
2018-09-20T03:48:03.867Z,1003.29
2018-09-20T03:49:13.942Z,1003.25
2018-09-20T03:50:24.040Z,1003.28
2018-09-20T03:51:34.127Z,1003.28
2018-09-20T03:52:43.998Z,1003.28
2018-09-20T03:53:54.069Z,1003.28
2018-09-20T03:55:04.155Z,1003.25
2018-09-20T03:56:14.218Z,1003.29
2018-09-20T03:57:24.293Z,1003.25
2018-09-20T03:58:34.400Z,1003.26
2018-09-20T03:59:44.512Z,1003.26
2018-09-20T04:00:54.591Z,1003.24
2018-09-20T04:02:04.404Z,1003.21
2018-09-20T04:03:14.492Z,1003.23
2018-09-20T04:04:24.574Z,1003.24
2018-09-20T04:05:34.690Z,1003.21
2018-09-20T04:06:44.506Z,1003.22
2018-09-20T04:07:54.603Z,1003.21
2018-09-20T04:09:04.696Z,1003.2
2018-09-20T04:10:14.826Z,1003.21
2018-09-20T04:11:24.972Z,1003.2
2018-09-20T04:12:35.062Z,1003.17
2018-09-20T04:13:45.155Z,1003.15
2018-09-20T04:14:55.222Z,1003.21
2018-09-20T04:16:05.392Z,1003.18
2018-09-20T04:17:15.194Z,1003.21
2018-09-20T04:18:25.269Z,1003.2
2018-09-20T04:19:35.350Z,1003.25
2018-09-20T04:20:45.413Z,1003.25
2018-09-20T04:21:55.538Z,1003.23
2018-09-20T04:23:05.610Z,1003.25
2018-09-20T04:24:15.691Z,1003.27
2018-09-20T04:25:25.763Z,1003.33
2018-09-20T04:26:35.832Z,1003.31
2018-09-20T04:27:46.014Z,1003.39
2018-09-20T04:28:56.110Z,1003.37
2018-09-20T04:30:06.210Z,1003.35
2018-09-20T04:31:16.277Z,1003.42
2018-09-20T04:32:26.093Z,1003.37
2018-09-20T04:33:36.019Z,1003.39
2018-09-20T04:34:46.149Z,1003.41
2018-09-20T04:35:55.693Z,1003.37
2018-09-20T04:37:07.867Z,1003.41
2018-09-20T04:38:17.941Z,1003.39
2018-09-20T04:39:28.157Z,1003.44
2018-09-20T04:40:38.246Z,1003.46
2018-09-20T04:41:48.314Z,1003.46
2018-09-20T04:42:57.871Z,1003.51
2018-09-20T04:44:07.685Z,1003.49
2018-09-20T04:45:17.745Z,1003.47
2018-09-20T04:46:27.847Z,1003.47
2018-09-20T04:47:37.909Z,1003.45
2018-09-20T04:48:47.738Z,1003.45
2018-09-20T04:49:57.810Z,1003.45
2018-09-20T04:51:08.049Z,1003.46
2018-09-20T04:52:18.119Z,1003.5
2018-09-20T04:53:27.729Z,1003.49
2018-09-20T04:54:37.976Z,1003.51
2018-09-20T04:55:47.807Z,1003.56
2018-09-20T04:56:57.941Z,1003.56
2018-09-20T04:58:07.857Z,1003.61
2018-09-20T04:59:17.932Z,1003.57
2018-09-20T05:00:27.742Z,1003.57
2018-09-20T05:01:37.622Z,1003.59
2018-09-20T05:02:47.701Z,1003.57
2018-09-20T05:03:57.772Z,1003.56
2018-09-20T05:05:07.851Z,1003.55
2018-09-20T05:06:17.691Z,1003.57
2018-09-20T05:07:27.768Z,1003.57
2018-09-20T05:08:37.844Z,1003.62
2018-09-20T05:09:47.491Z,1003.61
2018-09-20T05:10:57.573Z,1003.57
2018-09-20T05:12:08.038Z,1003.57
2018-09-20T05:13:18.168Z,1003.57
2018-09-20T05:14:28.027Z,1003.53
2018-09-20T05:15:37.838Z,1003.56
2018-09-20T05:16:47.654Z,1003.51
2018-09-20T05:17:57.713Z,1003.51
2018-09-20T05:19:07.847Z,1003.49
2018-09-20T05:20:17.964Z,1003.52
2018-09-20T05:21:28.287Z,1003.5
2018-09-20T05:22:38.377Z,1003.5
2018-09-20T05:23:48.441Z,1003.51
2018-09-20T05:24:58.566Z,1003.52
2018-09-20T05:26:08.376Z,1003.54
2018-09-20T05:27:18.444Z,1003.56
2018-09-20T05:28:28.528Z,1003.57
2018-09-20T05:29:38.609Z,1003.59
2018-09-20T05:30:48.740Z,1003.59
2018-09-20T05:31:58.806Z,1003.55
2018-09-20T05:33:09.038Z,1003.56
2018-09-20T05:34:19.362Z,1003.56
2018-09-20T05:35:29.468Z,1003.59
2018-09-20T05:36:40.095Z,1003.57
2018-09-20T05:37:50.157Z,1003.57
2018-09-20T05:39:00.687Z,1003.57
2018-09-20T05:40:10.746Z,1003.54
2018-09-20T05:41:20.577Z,1003.55
2018-09-20T05:42:30.708Z,1003.59
2018-09-20T05:43:40.864Z,1003.61
2018-09-20T05:44:51.102Z,1003.6
2018-09-20T05:46:00.918Z,1003.62
2018-09-20T05:47:10.979Z,1003.64
2018-09-20T05:48:21.053Z,1003.61
2018-09-20T05:49:30.884Z,1003.62
2018-09-20T05:50:40.723Z,1003.62
2018-09-20T05:51:51.143Z,1003.62
2018-09-20T05:53:01.760Z,1003.64
2018-09-20T05:54:11.933Z,1003.62
2018-09-20T05:55:22.000Z,1003.62
2018-09-20T05:56:32.122Z,1003.64
2018-09-20T05:57:42.213Z,1003.6
2018-09-20T05:58:52.038Z,1003.64
2018-09-20T06:00:01.884Z,1003.6
2018-09-20T06:01:11.976Z,1003.6
2018-09-20T06:02:22.057Z,1003.6
2018-09-20T06:03:32.120Z,1003.61
2018-09-20T06:04:42.190Z,1003.61
2018-09-20T06:05:52.065Z,1003.64
2018-09-20T06:07:03.089Z,1003.64
2018-09-20T06:08:13.427Z,1003.66
2018-09-20T06:09:23.526Z,1003.64
2018-09-20T06:10:33.329Z,1003.65
2018-09-20T06:11:43.413Z,1003.66
2018-09-20T06:12:53.234Z,1003.67
2018-09-20T06:14:03.335Z,1003.69
2018-09-20T06:15:13.410Z,1003.66
2018-09-20T06:16:23.500Z,1003.62
2018-09-20T06:17:33.575Z,1003.66
2018-09-20T06:18:43.643Z,1003.67
2018-09-20T06:19:53.831Z,1003.67
2018-09-20T06:21:05.599Z,1003.63
2018-09-20T06:22:15.681Z,1003.67
2018-09-20T06:23:25.502Z,1003.66
2018-09-20T06:24:35.575Z,1003.7
2018-09-20T06:25:45.647Z,1003.69
2018-09-20T06:26:55.708Z,1003.71
2018-09-20T06:28:06.614Z,1003.72
2018-09-20T06:29:16.446Z,1003.74
2018-09-20T06:30:26.532Z,1003.72
2018-09-20T06:31:36.655Z,1003.73
2018-09-20T06:32:46.754Z,1003.73
2018-09-20T06:33:56.844Z,1003.75
2018-09-20T06:35:06.919Z,1003.74
2018-09-20T06:36:17.006Z,1003.75
2018-09-20T06:37:26.875Z,1003.74
2018-09-20T06:38:36.943Z,1003.73
2018-09-20T06:39:47.059Z,1003.75
2018-09-20T06:40:57.133Z,1003.82
2018-09-20T06:42:07.026Z,1003.79
2018-09-20T06:43:17.184Z,1003.82
2018-09-20T06:44:27.289Z,1003.81
2018-09-20T06:45:37.378Z,1003.8
2018-09-20T06:46:47.463Z,1003.82
2018-09-20T06:47:57.528Z,1003.78
2018-09-20T06:49:08.536Z,1003.82
2018-09-20T06:50:18.622Z,1003.8
2018-09-20T06:51:29.055Z,1003.8
2018-09-20T06:52:39.136Z,1003.8
2018-09-20T06:53:48.682Z,1003.77
2018-09-20T06:54:58.807Z,1003.8
2018-09-20T06:56:08.896Z,1003.77
2018-09-20T06:57:18.993Z,1003.79
2018-09-20T06:58:29.064Z,1003.76
2018-09-20T06:59:38.912Z,1003.8
2018-09-20T07:00:48.994Z,1003.79
2018-09-20T07:01:59.063Z,1003.8
2018-09-20T07:03:09.197Z,1003.88
2018-09-20T07:04:19.668Z,1003.85
2018-09-20T07:05:29.775Z,1003.87
2018-09-20T07:06:39.967Z,1003.9
2018-09-20T07:07:50.064Z,1003.92
2018-09-20T07:08:59.924Z,1003.94
2018-09-20T07:10:09.993Z,1003.93
2018-09-20T07:11:19.785Z,1003.96
2018-09-20T07:12:29.878Z,1003.95
2018-09-20T07:13:40.042Z,1003.91
2018-09-20T07:14:50.534Z,1003.93
2018-09-20T07:16:02.901Z,1003.91
2018-09-20T07:17:12.721Z,1003.87
2018-09-20T07:18:22.835Z,1003.9
2018-09-20T07:19:32.931Z,1003.9
2018-09-20T07:20:42.482Z,1003.9
2018-09-20T07:21:52.578Z,1003.87
2018-09-20T07:23:02.650Z,1003.87
2018-09-20T07:24:12.884Z,1003.86
2018-09-20T07:25:23.018Z,1003.87
2018-09-20T07:26:33.507Z,1003.88
2018-09-20T07:27:43.432Z,1003.92
2018-09-20T07:28:53.561Z,1003.91
2018-09-20T07:30:03.691Z,1003.97
2018-09-20T07:31:13.788Z,1003.95
2018-09-20T07:32:23.862Z,1003.99
2018-09-20T07:33:34.013Z,1003.98
2018-09-20T07:34:43.826Z,1003.98
2018-09-20T07:35:54.031Z,1003.9
2018-09-20T07:37:03.937Z,1003.93
2018-09-20T07:38:13.486Z,1003.95
2018-09-20T07:39:23.305Z,1003.95
2018-09-20T07:40:33.377Z,1003.95
2018-09-20T07:41:43.452Z,1003.98
2018-09-20T07:42:53.535Z,1004
2018-09-20T07:44:04.058Z,1003.99
2018-09-20T07:45:13.874Z,1003.95
2018-09-20T07:46:23.947Z,1003.96
2018-09-20T07:47:34.453Z,1003.94
2018-09-20T07:48:44.530Z,1003.96
2018-09-20T07:49:54.602Z,1003.95
2018-09-20T07:51:04.683Z,1003.99
2018-09-20T07:52:14.830Z,1004.03
2018-09-20T07:53:24.702Z,1004
2018-09-20T07:54:34.809Z,1004.02
2018-09-20T07:55:44.920Z,1004.01
2018-09-20T07:56:55.009Z,1004.01
2018-09-20T07:58:05.074Z,1004
2018-09-20T07:59:15.174Z,1004
2018-09-20T08:00:25.254Z,1004.03
2018-09-20T08:01:34.932Z,1004.03
2018-09-20T08:02:44.750Z,1004
2018-09-20T08:03:54.842Z,1004.04
2018-09-20T08:05:04.657Z,1004.01
2018-09-20T08:06:14.753Z,1004.02
2018-09-20T08:07:24.877Z,1004.05
2018-09-20T08:08:34.962Z,1004.05
2018-09-20T08:09:45.041Z,1004.09
2018-09-20T08:10:54.950Z,1004.07
2018-09-20T08:12:05.105Z,1004.07
2018-09-20T08:13:14.939Z,1004.1
2018-09-20T08:14:25.042Z,1004.14
2018-09-20T08:15:35.136Z,1004.11
2018-09-20T08:16:45.228Z,1004.11
2018-09-20T08:17:55.297Z,1004.11
2018-09-20T08:19:05.113Z,1004.11
2018-09-20T08:20:15.301Z,1004.1
2018-09-20T08:21:25.411Z,1004.09
2018-09-20T08:22:35.869Z,1004.11
2018-09-20T08:23:45.952Z,1004.04
2018-09-20T08:24:55.792Z,1004.06
2018-09-20T08:26:05.905Z,1004.03
2018-09-20T08:27:16.005Z,1004.05
2018-09-20T08:28:26.176Z,1004.05
2018-09-20T08:29:36.263Z,1004.02
2018-09-20T08:30:46.359Z,1004.03
2018-09-20T08:31:56.427Z,1004.03
2018-09-20T08:33:06.523Z,1004.01
2018-09-20T08:34:16.603Z,1003.96
2018-09-20T08:35:26.447Z,1003.99
2018-09-20T08:36:36.560Z,1003.97
2018-09-20T08:37:46.835Z,1003.97
2018-09-20T08:38:57.208Z,1003.92
2018-09-20T08:40:07.334Z,1003.94
2018-09-20T08:41:17.413Z,1003.97
2018-09-20T08:42:27.503Z,1003.98
2018-09-20T08:43:37.326Z,1003.97
2018-09-20T08:44:47.167Z,1003.97
2018-09-20T08:45:57.280Z,1003.97
2018-09-20T08:47:07.367Z,1003.97
2018-09-20T08:48:17.437Z,1003.95
2018-09-20T08:49:27.270Z,1003.99
2018-09-20T08:50:37.398Z,1003.94
2018-09-20T08:51:47.537Z,1003.97
2018-09-20T08:52:57.621Z,1003.95
2018-09-20T08:54:07.455Z,1003.95
2018-09-20T08:55:16.735Z,1003.95
2018-09-20T08:56:26.294Z,1003.96
2018-09-20T08:57:36.165Z,1003.97
2018-09-20T08:58:45.997Z,1003.92
2018-09-20T08:59:55.804Z,1003.91
2018-09-20T09:01:05.373Z,1003.91
2018-09-20T09:02:15.463Z,1003.91
2018-09-20T09:03:25.678Z,1003.92
2018-09-20T09:04:35.820Z,1003.93
2018-09-20T09:05:45.922Z,1003.93
2018-09-20T09:06:56.002Z,1003.92
2018-09-20T09:08:06.283Z,1003.9
2018-09-20T09:09:16.377Z,1003.91
2018-09-20T09:10:26.456Z,1003.88
2018-09-20T09:11:36.551Z,1003.87
2018-09-20T09:12:46.672Z,1003.88
2018-09-20T09:13:56.751Z,1003.91
2018-09-20T09:15:06.933Z,1003.9
2018-09-20T09:16:17.029Z,1003.94
2018-09-20T09:17:27.106Z,1003.91
2018-09-20T09:18:36.927Z,1003.89
2018-09-20T09:19:46.516Z,1003.87
2018-09-20T09:20:56.664Z,1003.88
2018-09-20T09:22:06.227Z,1003.86
2018-09-20T09:23:29.051Z,1003.86
2018-09-20T09:24:39.144Z,1003.85
2018-09-20T09:25:48.709Z,1003.8
2018-09-20T09:26:58.833Z,1003.81
2018-09-20T09:28:08.926Z,1003.79
2018-09-20T09:29:19.005Z,1003.74
2018-09-20T09:30:29.095Z,1003.74
2018-09-20T09:31:39.060Z,1003.74
2018-09-20T09:32:49.153Z,1003.75
2018-09-20T09:33:59.238Z,1003.72
2018-09-20T09:35:09.576Z,1003.72
2018-09-20T09:36:19.648Z,1003.73
2018-09-20T09:37:29.520Z,1003.74
2018-09-20T09:38:39.361Z,1003.73
2018-09-20T09:39:49.179Z,1003.71
2018-09-20T09:40:59.001Z,1003.72
2018-09-20T09:42:08.602Z,1003.72
2018-09-20T09:43:19.041Z,1003.72
2018-09-20T09:44:29.122Z,1003.68
2018-09-20T09:45:39.213Z,1003.66
2018-09-20T09:46:49.296Z,1003.69
2018-09-20T09:47:59.139Z,1003.58
2018-09-20T09:49:09.415Z,1003.58
2018-09-20T09:50:19.215Z,1003.53
2018-09-20T09:51:29.073Z,1003.55
2018-09-20T09:52:38.885Z,1003.52
2018-09-20T09:53:48.998Z,1003.49
2018-09-20T09:54:58.841Z,1003.53
2018-09-20T09:56:08.652Z,1003.48
2018-09-20T09:57:18.737Z,1003.47
2018-09-20T09:58:28.557Z,1003.46
2018-09-20T09:59:38.718Z,1003.43
2018-09-20T10:00:49.091Z,1003.41
2018-09-20T10:01:59.183Z,1003.39
2018-09-20T10:03:10.727Z,1003.37
2018-09-20T10:04:20.826Z,1003.35
2018-09-20T10:05:30.900Z,1003.34
2018-09-20T10:06:41.091Z,1003.36
2018-09-20T10:07:51.329Z,1003.35
2018-09-20T10:09:03.563Z,1003.35
2018-09-20T10:10:13.140Z,1003.34
2018-09-20T10:11:22.996Z,1003.28
2018-09-20T10:12:32.553Z,1003.28
2018-09-20T10:13:42.695Z,1003.24
2018-09-20T10:14:53.323Z,1003.21
2018-09-20T10:16:03.412Z,1003.23
2018-09-20T10:17:13.230Z,1003.21
2018-09-20T10:18:23.353Z,1003.19
2018-09-20T10:19:33.177Z,1003.19
2018-09-20T10:20:43.013Z,1003.16
2018-09-20T10:21:53.108Z,1003.16
2018-09-20T10:23:04.203Z,1003.14
2018-09-20T10:24:14.295Z,1003.14
2018-09-20T10:25:23.858Z,1003.06
2018-09-20T10:26:33.961Z,1003.06
2018-09-20T10:27:44.048Z,1003.09
2018-09-20T10:28:54.152Z,1003.02
2018-09-20T10:30:06.254Z,1002.99
2018-09-20T10:31:16.420Z,1002.99
2018-09-20T10:32:26.545Z,1002.98
2018-09-20T10:33:36.629Z,1002.99
2018-09-20T10:34:46.854Z,1002.99
2018-09-20T10:35:56.930Z,1002.93
2018-09-20T10:37:06.751Z,1002.96
2018-09-20T10:38:16.832Z,1002.96
2018-09-20T10:39:26.956Z,1002.95
2018-09-20T10:40:37.039Z,1002.95
2018-09-20T10:41:47.159Z,1002.94
2018-09-20T10:42:56.993Z,1002.89
2018-09-20T10:44:07.083Z,1002.91
2018-09-20T10:45:17.171Z,1002.91
2018-09-20T10:46:27.251Z,1002.85
2018-09-20T10:47:37.356Z,1002.88
2018-09-20T10:48:47.446Z,1002.9
2018-09-20T10:49:57.289Z,1002.88
2018-09-20T10:51:08.818Z,1002.89
2018-09-20T10:52:18.899Z,1002.91
2018-09-20T10:53:28.804Z,1002.91
2018-09-20T10:54:38.977Z,1002.89
2018-09-20T10:55:48.941Z,1002.89
2018-09-20T10:56:59.038Z,1002.88
2018-09-20T10:58:09.126Z,1002.87
2018-09-20T10:59:19.223Z,1002.88
2018-09-20T11:00:29.315Z,1002.87
2018-09-20T11:01:39.148Z,1002.89
2018-09-20T11:02:49.225Z,1002.86
2018-09-20T11:03:59.289Z,1002.86
2018-09-20T11:05:08.871Z,1002.81
2018-09-20T11:06:18.975Z,1002.83
2018-09-20T11:07:29.066Z,1002.82
2018-09-20T11:08:39.263Z,1002.8
2018-09-20T11:09:49.370Z,1002.8
2018-09-20T11:10:59.503Z,1002.74
2018-09-20T11:12:09.745Z,1002.77
2018-09-20T11:13:19.827Z,1002.75
2018-09-20T11:14:29.967Z,1002.71
2018-09-20T11:15:40.039Z,1002.72
2018-09-20T11:16:50.120Z,1002.67
2018-09-20T11:18:01.453Z,1002.69
2018-09-20T11:19:11.540Z,1002.65
2018-09-20T11:20:21.674Z,1002.62
2018-09-20T11:21:31.768Z,1002.64
2018-09-20T11:22:41.597Z,1002.64
2018-09-20T11:23:51.697Z,1002.62
2018-09-20T11:25:01.527Z,1002.59
2018-09-20T11:26:11.652Z,1002.59
2018-09-20T11:27:21.734Z,1002.56
2018-09-20T11:28:31.821Z,1002.57
2018-09-20T11:29:41.382Z,1002.55
2018-09-20T11:30:51.213Z,1002.55
2018-09-20T11:32:01.359Z,1002.56
2018-09-20T11:33:11.193Z,1002.51
2018-09-20T11:34:21.018Z,1002.5
2018-09-20T11:35:30.846Z,1002.51
2018-09-20T11:36:40.911Z,1002.51
2018-09-20T11:37:50.800Z,1002.51
2018-09-20T11:39:02.033Z,1002.47
2018-09-20T11:40:11.842Z,1002.47
2018-09-20T11:41:21.929Z,1002.45
2018-09-20T11:42:31.770Z,1002.42
2018-09-20T11:43:41.861Z,1002.43
2018-09-20T11:44:51.962Z,1002.42
2018-09-20T11:46:02.539Z,1002.4
2018-09-20T11:47:14.433Z,1002.4
2018-09-20T11:48:24.260Z,1002.39
2018-09-20T11:49:34.401Z,1002.36
2018-09-20T11:50:44.495Z,1002.41
2018-09-20T11:51:54.595Z,1002.37
2018-09-20T11:53:04.686Z,1002.35
2018-09-20T11:54:14.892Z,1002.32
2018-09-20T11:55:24.816Z,1002.35
2018-09-20T11:56:34.646Z,1002.33
2018-09-20T11:57:44.762Z,1002.3
2018-09-20T11:58:54.591Z,1002.32
2018-09-20T12:00:06.236Z,1002.29
2018-09-20T12:01:16.120Z,1002.3
2018-09-20T12:02:26.856Z,1002.27
2018-09-20T12:03:36.664Z,1002.26
2018-09-20T12:04:46.052Z,1002.27
2018-09-20T12:05:55.876Z,1002.26
2018-09-20T12:07:06.664Z,1002.28
2018-09-20T12:08:16.751Z,1002.26
2018-09-20T12:09:26.845Z,1002.26
2018-09-20T12:10:36.934Z,1002.27
2018-09-20T12:11:47.009Z,1002.25
2018-09-20T12:12:57.115Z,1002.27
2018-09-20T12:14:07.118Z,1002.24
2018-09-20T12:15:16.958Z,1002.25
2018-09-20T12:16:26.848Z,1002.18
2018-09-20T12:17:36.771Z,1002.2
2018-09-20T12:18:46.880Z,1002.19
2018-09-20T12:19:56.826Z,1002.15
2018-09-20T12:21:06.923Z,1002.14
2018-09-20T12:22:17.088Z,1002.13
2018-09-20T12:23:27.182Z,1002.11
2018-09-20T12:24:37.273Z,1002.15
2018-09-20T12:25:47.149Z,1002.13
2018-09-20T12:26:57.659Z,1002.11
2018-09-20T12:28:07.532Z,1002.05
2018-09-20T12:29:17.652Z,1002.08
2018-09-20T12:30:27.776Z,1002.05
2018-09-20T12:31:37.932Z,1002.07
2018-09-20T12:32:47.954Z,1001.99
2018-09-20T12:33:58.494Z,1002.01
2018-09-20T12:35:08.616Z,1002.01
2018-09-20T12:36:18.936Z,1002.01
2018-09-20T12:37:29.134Z,1001.99
2018-09-20T12:38:39.019Z,1001.97
2018-09-20T12:39:49.456Z,1001.96
2018-09-20T12:40:59.295Z,1001.95
2018-09-20T12:42:09.389Z,1001.93
2018-09-20T12:43:19.578Z,1001.99
2018-09-20T12:44:29.747Z,1001.93
2018-09-20T12:45:39.903Z,1001.92
2018-09-20T12:46:49.749Z,1001.91
2018-09-20T12:47:59.851Z,1001.9
2018-09-20T12:49:10.923Z,1001.88
2018-09-20T12:50:20.743Z,1001.89
2018-09-20T12:51:30.834Z,1001.88
2018-09-20T12:52:40.935Z,1001.87
2018-09-20T12:53:51.030Z,1001.88
2018-09-20T12:55:01.229Z,1001.85
2018-09-20T12:56:11.480Z,1001.82
2018-09-20T12:57:21.347Z,1001.84
2018-09-20T12:58:31.483Z,1001.83
2018-09-20T12:59:41.574Z,1001.84
2018-09-20T13:00:51.652Z,1001.84
2018-09-20T13:02:01.820Z,1001.85
2018-09-20T13:03:12.229Z,1001.82
2018-09-20T13:04:22.308Z,1001.84
2018-09-20T13:05:32.398Z,1001.84
2018-09-20T13:06:42.508Z,1001.76
2018-09-20T13:07:52.617Z,1001.74
2018-09-20T13:09:03.798Z,1001.75
2018-09-20T13:10:14.018Z,1001.72
2018-09-20T13:11:24.115Z,1001.75
2018-09-20T13:12:34.246Z,1001.7
2018-09-20T13:13:44.351Z,1001.68
2018-09-20T13:14:54.437Z,1001.68
2018-09-20T13:16:04.525Z,1001.68
2018-09-20T13:17:14.604Z,1001.67
2018-09-20T13:18:24.699Z,1001.66
2018-09-20T13:19:34.540Z,1001.65
2018-09-20T13:20:44.632Z,1001.63
2018-09-20T13:21:54.471Z,1001.64
2018-09-20T13:23:04.565Z,1001.63
2018-09-20T13:24:14.684Z,1001.6
2018-09-20T13:25:24.892Z,1001.58
2018-09-20T13:26:35.206Z,1001.6
2018-09-20T13:27:45.281Z,1001.58
2018-09-20T13:28:55.121Z,1001.58
2018-09-20T13:30:05.221Z,1001.6
2018-09-20T13:31:15.043Z,1001.54
2018-09-20T13:32:25.146Z,1001.56
2018-09-20T13:33:35.247Z,1001.59
2018-09-20T13:34:45.341Z,1001.56
2018-09-20T13:35:55.458Z,1001.55
2018-09-20T13:37:07.945Z,1001.52
2018-09-20T13:38:18.358Z,1001.54
2018-09-20T13:39:28.199Z,1001.55
2018-09-20T13:40:38.299Z,1001.52
2018-09-20T13:41:48.543Z,1001.51
2018-09-20T13:42:59.625Z,1001.49
2018-09-20T13:44:10.318Z,1001.47
2018-09-20T13:45:20.709Z,1001.46
2018-09-20T13:46:30.591Z,1001.45
2018-09-20T13:47:41.099Z,1001.39
2018-09-20T13:48:52.829Z,1001.43
2018-09-20T13:50:03.132Z,1001.43
2018-09-20T13:51:13.821Z,1001.42
2018-09-20T13:52:24.324Z,1001.41
2018-09-20T13:53:34.950Z,1001.42
2018-09-20T13:54:45.464Z,1001.43
2018-09-20T13:55:55.343Z,1001.38
2018-09-20T13:57:05.402Z,1001.41
2018-09-20T13:58:15.250Z,1001.38
2018-09-20T13:59:25.443Z,1001.38
2018-09-20T14:00:35.546Z,1001.36
2018-09-20T14:01:45.385Z,1001.38
2018-09-20T14:02:55.502Z,1001.31
2018-09-20T14:04:05.589Z,1001.32
2018-09-20T14:05:15.401Z,1001.28
2018-09-20T14:06:25.514Z,1001.28
2018-09-20T14:07:35.605Z,1001.27
2018-09-20T14:08:45.814Z,1001.25
2018-09-20T14:09:55.625Z,1001.26
2018-09-20T14:11:08.961Z,1001.27
2018-09-20T14:12:19.193Z,1001.27
2018-09-20T14:13:29.283Z,1001.24
2018-09-20T14:14:39.373Z,1001.23
2018-09-20T14:15:49.192Z,1001.21
2018-09-20T14:16:59.022Z,1001.19
2018-09-20T14:18:10.287Z,1001.21
2018-09-20T14:19:20.410Z,1001.2
2018-09-20T14:20:30.512Z,1001.18
2018-09-20T14:21:40.596Z,1001.18
2018-09-20T14:22:50.416Z,1001.16
2018-09-20T14:24:01.114Z,1001.15
2018-09-20T14:25:11.202Z,1001.13
2018-09-20T14:26:21.337Z,1001.11
2018-09-20T14:27:31.435Z,1001.1
2018-09-20T14:28:41.563Z,1001.11
2018-09-20T14:29:51.709Z,1001.12
2018-09-20T14:31:01.543Z,1001.09
2018-09-20T14:32:11.107Z,1001.05
2018-09-20T14:33:21.233Z,1001.05
2018-09-20T14:34:31.329Z,1001.09
2018-09-20T14:35:41.466Z,1001.05
2018-09-20T14:36:51.565Z,1001.08
2018-09-20T14:38:01.401Z,1001.07
2018-09-20T14:39:11.500Z,1001.07
2018-09-20T14:40:21.063Z,1001.05
2018-09-20T14:41:31.148Z,1001.07
2018-09-20T14:42:41.032Z,1001.01
2018-09-20T14:43:51.129Z,1001.01